sensor_id;sensor_type;location;lat;lon;timestamp;pressure;altitude;pressure_sealevel;temperature;humidity
56142;BME280;42018;48.588;10.836;2023-02-11T00:01:53;98757.75;;;-1.82;65.99
56142;BME280;42018;48.588;10.836;2023-02-11T00:04:38;98759.81;;;-1.85;65.39
56142;BME280;42018;48.588;10.836;2023-02-11T00:07:23;98764.47;;;-1.99;65.81
56142;BME280;42018;48.588;10.836;2023-02-11T00:10:09;98759.78;;;-2.14;66.54
56142;BME280;42018;48.588;10.836;2023-02-11T00:12:54;98757.75;;;-2.01;66.45
56142;BME280;42018;48.588;10.836;2023-02-11T00:15:40;98765.41;;;-2.00;66.17
56142;BME280;42018;48.588;10.836;2023-02-11T00:18:26;98770.06;;;-1.94;66.02
56142;BME280;42018;48.588;10.836;2023-02-11T00:21:17;98772.34;;;-2.10;65.71
56142;BME280;42018;48.588;10.836;2023-02-11T00:24:03;98768.69;;;-1.98;65.32
56142;BME280;42018;48.588;10.836;2023-02-11T00:26:48;98764.59;;;-2.00;65.83
56142;BME280;42018;48.588;10.836;2023-02-11T00:29:33;98769.25;;;-1.84;65.02
56142;BME280;42018;48.588;10.836;2023-02-11T00:32:19;98777.19;;;-1.96;65.10
56142;BME280;42018;48.588;10.836;2023-02-11T00:35:04;98779.53;;;-2.52;66.15
56142;BME280;42018;48.588;10.836;2023-02-11T00:37:52;98775.47;;;-2.35;66.35
56142;BME280;42018;48.588;10.836;2023-02-11T00:40:38;98765.63;;;-2.42;65.98
56142;BME280;42018;48.588;10.836;2023-02-11T00:43:23;98775.34;;;-2.24;66.80
56142;BME280;42018;48.588;10.836;2023-02-11T00:46:09;98772.22;;;-2.18;65.81
56142;BME280;42018;48.588;10.836;2023-02-11T00:48:55;98774.44;;;-1.94;65.17
56142;BME280;42018;48.588;10.836;2023-02-11T00:51:41;98773.59;;;-2.04;64.41
56142;BME280;42018;48.588;10.836;2023-02-11T00:54:27;98769.41;;;-1.96;64.67
56142;BME280;42018;48.588;10.836;2023-02-11T00:57:12;98777.47;;;-1.79;64.17
56142;BME280;42018;48.588;10.836;2023-02-11T00:59:57;98769.22;;;-2.04;64.11
56142;BME280;42018;48.588;10.836;2023-02-11T01:02:43;98780.72;;;-2.16;65.41
56142;BME280;42018;48.588;10.836;2023-02-11T01:05:28;98769.75;;;-2.10;65.17
56142;BME280;42018;48.588;10.836;2023-02-11T01:08:13;98772.91;;;-2.16;64.84
56142;BME280;42018;48.588;10.836;2023-02-11T01:11:06;98768.09;;;-2.21;64.65
56142;BME280;42018;48.588;10.836;2023-02-11T01:13:51;98775.91;;;-2.21;64.91
56142;BME280;42018;48.588;10.836;2023-02-11T01:16:38;98776.31;;;-2.25;65.36
56142;BME280;42018;48.588;10.836;2023-02-11T01:19:24;98775.72;;;-2.38;65.04
56142;BME280;42018;48.588;10.836;2023-02-11T01:22:09;98773.81;;;-2.36;65.70
56142;BME280;42018;48.588;10.836;2023-02-11T01:24:55;98762.44;;;-2.55;66.49
56142;BME280;42018;48.588;10.836;2023-02-11T01:27:40;98768.81;;;-2.69;66.65
56142;BME280;42018;48.588;10.836;2023-02-11T01:30:26;98762.72;;;-2.89;67.62
56142;BME280;42018;48.588;10.836;2023-02-11T01:33:11;98756.31;;;-3.15;68.97
56142;BME280;42018;48.588;10.836;2023-02-11T01:36:01;98748.53;;;-3.15;69.56
56142;BME280;42018;48.588;10.836;2023-02-11T01:38:47;98745.31;;;-3.28;69.96
56142;BME280;42018;48.588;10.836;2023-02-11T01:41:34;98741.00;;;-2.97;69.33
56142;BME280;42018;48.588;10.836;2023-02-11T01:44:32;98734.69;;;-3.04;68.49
56142;BME280;42018;48.588;10.836;2023-02-11T01:47:19;98734.97;;;-3.28;69.94
56142;BME280;42018;48.588;10.836;2023-02-11T01:50:08;98739.47;;;-3.30;70.88
56142;BME280;42018;48.588;10.836;2023-02-11T01:52:53;98727.41;;;-3.41;69.97
56142;BME280;42018;48.588;10.836;2023-02-11T01:55:59;98718.34;;;-3.68;71.82
56142;BME280;42018;48.588;10.836;2023-02-11T01:59:08;98709.50;;;-3.86;72.93
56142;BME280;42018;48.588;10.836;2023-02-11T02:02:00;98700.72;;;-3.53;71.39
56142;BME280;42018;48.588;10.836;2023-02-11T02:05:07;98692.22;;;-3.65;72.32
56142;BME280;42018;48.588;10.836;2023-02-11T02:11:01;98684.16;;;-3.41;70.74
56142;BME280;42018;48.588;10.836;2023-02-11T02:13:47;98682.00;;;-3.35;71.79
56142;BME280;42018;48.588;10.836;2023-02-11T02:16:35;98665.06;;;-3.40;71.39
56142;BME280;42018;48.588;10.836;2023-02-11T02:19:46;98665.31;;;-3.94;74.38
56142;BME280;42018;48.588;10.836;2023-02-11T02:29:10;98658.78;;;-3.89;74.12
56142;BME280;42018;48.588;10.836;2023-02-11T02:38:26;98668.06;;;-3.44;73.43
56142;BME280;42018;48.588;10.836;2023-02-11T02:41:21;98670.16;;;-3.28;71.87
56142;BME280;42018;48.588;10.836;2023-02-11T02:44:07;98665.13;;;-3.30;71.50
56142;BME280;42018;48.588;10.836;2023-02-11T02:46:53;98666.19;;;-3.32;71.22
56142;BME280;42018;48.588;10.836;2023-02-11T02:49:38;98667.78;;;-3.10;71.63
56142;BME280;42018;48.588;10.836;2023-02-11T02:52:58;98656.47;;;-3.09;70.14
56142;BME280;42018;48.588;10.836;2023-02-11T03:05:13;98650.50;;;-3.00;69.01
56142;BME280;42018;48.588;10.836;2023-02-11T03:08:07;98655.19;;;-2.84;68.55
56142;BME280;42018;48.588;10.836;2023-02-11T03:10:55;98656.00;;;-2.74;68.07
56142;BME280;42018;48.588;10.836;2023-02-11T03:13:41;98653.78;;;-2.89;68.07
56142;BME280;42018;48.588;10.836;2023-02-11T03:16:28;98642.75;;;-2.71;67.57
56142;BME280;42018;48.588;10.836;2023-02-11T03:19:17;98654.81;;;-2.60;66.77
56142;BME280;42018;48.588;10.836;2023-02-11T03:22:07;98660.13;;;-2.62;67.88
56142;BME280;42018;48.588;10.836;2023-02-11T03:24:55;98661.75;;;-2.71;68.27
56142;BME280;42018;48.588;10.836;2023-02-11T03:30:37;98654.69;;;-2.59;67.55
56142;BME280;42018;48.588;10.836;2023-02-11T03:33:38;98662.63;;;-2.41;66.97
56142;BME280;42018;48.588;10.836;2023-02-11T03:39:38;98659.44;;;-2.74;68.01
56142;BME280;42018;48.588;10.836;2023-02-11T03:42:27;98659.47;;;-2.54;68.54
56142;BME280;42018;48.588;10.836;2023-02-11T03:45:17;98660.53;;;-2.57;68.92
56142;BME280;42018;48.588;10.836;2023-02-11T03:48:11;98660.25;;;-2.73;69.60
56142;BME280;42018;48.588;10.836;2023-02-11T03:51:01;98658.22;;;-2.60;69.63
56142;BME280;42018;48.588;10.836;2023-02-11T03:53:49;98666.00;;;-2.70;69.19
56142;BME280;42018;48.588;10.836;2023-02-11T03:56:49;98666.41;;;-2.65;69.53
56142;BME280;42018;48.588;10.836;2023-02-11T03:59:57;98668.59;;;-2.60;69.40
56142;BME280;42018;48.588;10.836;2023-02-11T04:02:43;98670.44;;;-2.81;71.48
56142;BME280;42018;48.588;10.836;2023-02-11T04:05:29;98671.19;;;-2.60;69.75
56142;BME280;42018;48.588;10.836;2023-02-11T04:08:14;98674.88;;;-2.62;69.75
56142;BME280;42018;48.588;10.836;2023-02-11T04:11:00;98674.63;;;-2.59;69.62
56142;BME280;42018;48.588;10.836;2023-02-11T04:13:45;98677.84;;;-2.67;70.47
56142;BME280;42018;48.588;10.836;2023-02-11T04:16:30;98687.03;;;-2.63;70.09
56142;BME280;42018;48.588;10.836;2023-02-11T04:19:16;98693.31;;;-2.66;69.59
56142;BME280;42018;48.588;10.836;2023-02-11T04:22:01;98699.56;;;-2.68;70.25
56142;BME280;42018;48.588;10.836;2023-02-11T04:24:47;98699.34;;;-2.46;69.77
56142;BME280;42018;48.588;10.836;2023-02-11T04:27:32;98700.03;;;-2.63;69.94
56142;BME280;42018;48.588;10.836;2023-02-11T04:30:17;98702.69;;;-2.74;71.06
56142;BME280;42018;48.588;10.836;2023-02-11T04:33:03;98696.34;;;-2.51;70.29
56142;BME280;42018;48.588;10.836;2023-02-11T04:35:48;98690.09;;;-2.89;71.54
56142;BME280;42018;48.588;10.836;2023-02-11T04:38:34;98682.88;;;-2.85;72.73
56142;BME280;42018;48.588;10.836;2023-02-11T04:41:19;98682.22;;;-2.77;71.58
56142;BME280;42018;48.588;10.836;2023-02-11T04:44:04;98684.97;;;-2.69;71.86
56142;BME280;42018;48.588;10.836;2023-02-11T04:46:50;98673.66;;;-2.58;71.50
56142;BME280;42018;48.588;10.836;2023-02-11T04:49:35;98668.91;;;-2.44;70.92
56142;BME280;42018;48.588;10.836;2023-02-11T04:52:21;98667.38;;;-2.66;72.21
56142;BME280;42018;48.588;10.836;2023-02-11T04:55:06;98669.69;;;-2.62;72.87
56142;BME280;42018;48.588;10.836;2023-02-11T04:57:52;98666.44;;;-2.55;72.63
56142;BME280;42018;48.588;10.836;2023-02-11T05:00:37;98665.88;;;-2.39;72.03
56142;BME280;42018;48.588;10.836;2023-02-11T05:03:22;98668.63;;;-2.41;71.71
56142;BME280;42018;48.588;10.836;2023-02-11T05:06:09;98667.25;;;-2.25;71.37
56142;BME280;42018;48.588;10.836;2023-02-11T05:08:54;98665.75;;;-2.18;70.46
56142;BME280;42018;48.588;10.836;2023-02-11T05:11:40;98659.63;;;-2.27;72.47
56142;BME280;42018;48.588;10.836;2023-02-11T05:14:25;98656.06;;;-2.35;73.27
56142;BME280;42018;48.588;10.836;2023-02-11T05:17:11;98663.97;;;-2.47;73.75
56142;BME280;42018;48.588;10.836;2023-02-11T05:19:56;98657.78;;;-2.75;76.21
56142;BME280;42018;48.588;10.836;2023-02-11T05:22:42;98654.13;;;-2.62;76.06
56142;BME280;42018;48.588;10.836;2023-02-11T05:25:27;98648.66;;;-2.50;75.69
56142;BME280;42018;48.588;10.836;2023-02-11T05:28:12;98636.41;;;-2.38;74.50
56142;BME280;42018;48.588;10.836;2023-02-11T05:30:58;98644.47;;;-2.41;75.77
56142;BME280;42018;48.588;10.836;2023-02-11T05:33:43;98636.53;;;-2.59;77.24
56142;BME280;42018;48.588;10.836;2023-02-11T05:36:29;98642.38;;;-2.57;76.90
56142;BME280;42018;48.588;10.836;2023-02-11T05:39:14;98642.78;;;-2.42;77.01
56142;BME280;42018;48.588;10.836;2023-02-11T05:42:00;98642.13;;;-2.25;75.79
56142;BME280;42018;48.588;10.836;2023-02-11T05:44:45;98642.97;;;-2.34;76.02
56142;BME280;42018;48.588;10.836;2023-02-11T05:47:30;98636.09;;;-2.54;77.43
56142;BME280;42018;48.588;10.836;2023-02-11T05:50:16;98637.88;;;-2.55;77.80
56142;BME280;42018;48.588;10.836;2023-02-11T05:53:01;98633.81;;;-2.38;78.06
56142;BME280;42018;48.588;10.836;2023-02-11T05:55:47;98629.56;;;-2.20;76.43
56142;BME280;42018;48.588;10.836;2023-02-11T05:58:32;98640.63;;;-2.08;75.61
56142;BME280;42018;48.588;10.836;2023-02-11T06:01:18;98639.78;;;-1.99;74.83
56142;BME280;42018;48.588;10.836;2023-02-11T06:04:03;98631.19;;;-1.99;74.85
56142;BME280;42018;48.588;10.836;2023-02-11T06:06:48;98633.34;;;-1.85;73.95
56142;BME280;42018;48.588;10.836;2023-02-11T06:09:35;98632.13;;;-1.81;75.18
56142;BME280;42018;48.588;10.836;2023-02-11T06:12:20;98623.34;;;-1.80;75.55
56142;BME280;42018;48.588;10.836;2023-02-11T06:15:06;98613.38;;;-1.84;75.24
56142;BME280;42018;48.588;10.836;2023-02-11T06:17:51;98618.59;;;-1.84;75.84
56142;BME280;42018;48.588;10.836;2023-02-11T06:20:37;98630.44;;;-1.72;74.72
56142;BME280;42018;48.588;10.836;2023-02-11T06:23:25;98622.16;;;-1.95;77.26
56142;BME280;42018;48.588;10.836;2023-02-11T06:26:17;98628.88;;;-2.02;78.27
56142;BME280;42018;48.588;10.836;2023-02-11T06:29:02;98623.50;;;-1.91;77.59
56142;BME280;42018;48.588;10.836;2023-02-11T06:31:48;98618.44;;;-1.93;77.95
56142;BME280;42018;48.588;10.836;2023-02-11T06:34:33;98615.41;;;-1.78;77.37
56142;BME280;42018;48.588;10.836;2023-02-11T06:37:19;98619.50;;;-1.66;76.30
56142;BME280;42018;48.588;10.836;2023-02-11T06:40:04;98626.97;;;-1.53;75.77
56142;BME280;42018;48.588;10.836;2023-02-11T06:42:50;98623.72;;;-1.65;76.36
56142;BME280;42018;48.588;10.836;2023-02-11T06:45:38;98622.47;;;-1.61;77.20
56142;BME280;42018;48.588;10.836;2023-02-11T06:48:24;98627.09;;;-1.55;77.36
56142;BME280;42018;48.588;10.836;2023-02-11T06:51:10;98624.78;;;-1.48;77.11
56142;BME280;42018;48.588;10.836;2023-02-11T06:53:57;98617.88;;;-1.39;76.90
56142;BME280;42018;48.588;10.836;2023-02-11T06:56:42;98630.31;;;-1.33;76.56
56142;BME280;42018;48.588;10.836;2023-02-11T06:59:27;98628.50;;;-1.23;76.01
56142;BME280;42018;48.588;10.836;2023-02-11T07:02:13;98623.84;;;-1.19;75.19
56142;BME280;42018;48.588;10.836;2023-02-11T07:04:58;98624.06;;;-1.13;74.21
56142;BME280;42018;48.588;10.836;2023-02-11T07:07:43;98628.03;;;-1.09;74.27
56142;BME280;42018;48.588;10.836;2023-02-11T07:10:29;98643.47;;;-1.07;74.74
56142;BME280;42018;48.588;10.836;2023-02-11T07:13:14;98647.44;;;-1.03;72.97
56142;BME280;42018;48.588;10.836;2023-02-11T07:16:04;98646.28;;;-0.91;73.32
56142;BME280;42018;48.588;10.836;2023-02-11T07:18:49;98644.22;;;-0.87;73.51
56142;BME280;42018;48.588;10.836;2023-02-11T07:21:35;98631.56;;;-0.82;74.64
56142;BME280;42018;48.588;10.836;2023-02-11T07:24:20;98615.22;;;-0.92;75.70
56142;BME280;42018;48.588;10.836;2023-02-11T07:27:05;98613.66;;;-0.85;75.81
56142;BME280;42018;48.588;10.836;2023-02-11T07:29:51;98604.88;;;-0.84;76.07
56142;BME280;42018;48.588;10.836;2023-02-11T07:32:36;98605.41;;;-0.81;75.97
56142;BME280;42018;48.588;10.836;2023-02-11T07:35:22;98600.28;;;-0.73;75.92
56142;BME280;42018;48.588;10.836;2023-02-11T07:38:07;98611.50;;;-0.72;75.26
56142;BME280;42018;48.588;10.836;2023-02-11T07:40:52;98614.56;;;-0.59;75.32
56142;BME280;42018;48.588;10.836;2023-02-11T07:43:38;98607.34;;;-0.65;75.62
56142;BME280;42018;48.588;10.836;2023-02-11T07:46:25;98612.94;;;-0.78;76.96
56142;BME280;42018;48.588;10.836;2023-02-11T07:49:11;98624.53;;;-0.54;74.80
56142;BME280;42018;48.588;10.836;2023-02-11T07:51:57;98621.41;;;-0.40;74.50
56142;BME280;42018;48.588;10.836;2023-02-11T07:54:42;98628.19;;;-0.29;74.85
56142;BME280;42018;48.588;10.836;2023-02-11T07:57:27;98617.69;;;-0.19;75.24
56142;BME280;42018;48.588;10.836;2023-02-11T08:00:13;98633.09;;;-0.08;74.85
56142;BME280;42018;48.588;10.836;2023-02-11T08:02:59;98625.94;;;-0.06;75.29
56142;BME280;42018;48.588;10.836;2023-02-11T08:05:44;98618.19;;;0.02;74.86
56142;BME280;42018;48.588;10.836;2023-02-11T08:08:29;98614.69;;;0.11;74.66
56142;BME280;42018;48.588;10.836;2023-02-11T08:11:21;98604.03;;;0.05;73.09
56142;BME280;42018;48.588;10.836;2023-02-11T08:14:07;98621.53;;;0.12;73.78
56142;BME280;42018;48.588;10.836;2023-02-11T08:16:53;98623.63;;;0.09;73.38
56142;BME280;42018;48.588;10.836;2023-02-11T08:19:38;98626.84;;;0.29;73.34
56142;BME280;42018;48.588;10.836;2023-02-11T08:22:24;98607.97;;;0.35;73.61
56142;BME280;42018;48.588;10.836;2023-02-11T08:25:09;98614.69;;;0.37;73.48
56142;BME280;42018;48.588;10.836;2023-02-11T08:27:54;98614.25;;;0.24;73.75
56142;BME280;42018;48.588;10.836;2023-02-11T08:30:40;98607.38;;;0.15;73.88
56142;BME280;42018;48.588;10.836;2023-02-11T08:33:25;98614.16;;;0.08;73.31
56142;BME280;42018;48.588;10.836;2023-02-11T08:36:16;98620.03;;;0.10;73.41
56142;BME280;42018;48.588;10.836;2023-02-11T08:39:07;98628.47;;;0.04;73.11
56142;BME280;42018;48.588;10.836;2023-02-11T08:41:55;98620.13;;;-0.18;73.55
56142;BME280;42018;48.588;10.836;2023-02-11T08:44:42;98634.66;;;-0.15;74.71
56142;BME280;42018;48.588;10.836;2023-02-11T08:47:28;98618.22;;;-0.16;75.37
56142;BME280;42018;48.588;10.836;2023-02-11T08:50:13;98629.66;;;-0.09;75.33
56142;BME280;42018;48.588;10.836;2023-02-11T08:52:59;98629.19;;;-0.04;75.12
56142;BME280;42018;48.588;10.836;2023-02-11T08:55:52;98619.75;;;-0.05;75.03
56142;BME280;42018;48.588;10.836;2023-02-11T08:58:38;98616.66;;;0.17;73.59
56142;BME280;42018;48.588;10.836;2023-02-11T09:01:26;98626.59;;;0.40;73.41
56142;BME280;42018;48.588;10.836;2023-02-11T09:04:12;98619.22;;;0.61;72.61
56142;BME280;42018;48.588;10.836;2023-02-11T09:06:58;98620.09;;;0.78;72.62
56142;BME280;42018;48.588;10.836;2023-02-11T09:09:43;98620.47;;;0.91;72.09
56142;BME280;42018;48.588;10.836;2023-02-11T09:12:29;98635.59;;;1.14;71.10
56142;BME280;42018;48.588;10.836;2023-02-11T09:15:14;98644.91;;;1.25;70.61
56142;BME280;42018;48.588;10.836;2023-02-11T09:18:00;98639.66;;;1.16;70.15
56142;BME280;42018;48.588;10.836;2023-02-11T09:20:45;98632.63;;;1.17;71.01
56142;BME280;42018;48.588;10.836;2023-02-11T09:23:31;98626.75;;;1.07;70.52
56142;BME280;42018;48.588;10.836;2023-02-11T09:29:05;98607.75;;;0.88;71.05
56142;BME280;42018;48.588;10.836;2023-02-11T09:31:51;98593.06;;;0.87;73.20
56142;BME280;42018;48.588;10.836;2023-02-11T09:34:36;98607.22;;;1.27;72.07
56142;BME280;42018;48.588;10.836;2023-02-11T09:37:21;98593.88;;;1.55;70.17
56142;BME280;42018;48.588;10.836;2023-02-11T09:40:07;98584.56;;;1.52;70.41
56142;BME280;42018;48.588;10.836;2023-02-11T09:43:03;98585.88;;;1.48;69.41
56142;BME280;42018;48.588;10.836;2023-02-11T09:45:54;98583.25;;;2.05;68.89
56142;BME280;42018;48.588;10.836;2023-02-11T09:48:42;98570.16;;;2.22;68.58
56142;BME280;42018;48.588;10.836;2023-02-11T09:54:35;98574.59;;;2.21;67.52
56142;BME280;42018;48.588;10.836;2023-02-11T09:57:32;98570.50;;;2.19;67.32
56142;BME280;42018;48.588;10.836;2023-02-11T10:00:30;98588.97;;;2.09;67.18
56142;BME280;42018;48.588;10.836;2023-02-11T10:12:44;98599.53;;;2.56;65.91
56142;BME280;42018;48.588;10.836;2023-02-11T10:22:01;98597.88;;;3.03;66.13
56142;BME280;42018;48.588;10.836;2023-02-11T10:24:53;98588.50;;;3.08;65.92
56142;BME280;42018;48.588;10.836;2023-02-11T10:27:41;98588.97;;;3.12;65.74
56142;BME280;42018;48.588;10.836;2023-02-11T10:30:32;98586.41;;;3.04;65.36
56142;BME280;42018;48.588;10.836;2023-02-11T10:36:29;98575.78;;;3.74;63.89
56142;BME280;42018;48.588;10.836;2023-02-11T10:39:22;98575.22;;;4.02;64.03
56142;BME280;42018;48.588;10.836;2023-02-11T10:42:11;98567.22;;;4.33;62.73
56142;BME280;42018;48.588;10.836;2023-02-11T10:45:02;98566.13;;;4.42;61.81
56142;BME280;42018;48.588;10.836;2023-02-11T10:47:48;98577.44;;;4.72;61.76
56142;BME280;42018;48.588;10.836;2023-02-11T10:50:34;98571.47;;;4.78;60.55
56142;BME280;42018;48.588;10.836;2023-02-11T10:53:21;98577.72;;;4.63;60.20
56142;BME280;42018;48.588;10.836;2023-02-11T10:56:11;98583.41;;;4.96;60.07
56142;BME280;42018;48.588;10.836;2023-02-11T10:59:06;98571.31;;;5.01;58.76
56142;BME280;42018;48.588;10.836;2023-02-11T11:02:20;98568.97;;;5.07;58.94
56142;BME280;42018;48.588;10.836;2023-02-11T11:05:16;98570.88;;;5.13;59.23
56142;BME280;42018;48.588;10.836;2023-02-11T11:08:07;98572.03;;;5.10;59.72
56142;BME280;42018;48.588;10.836;2023-02-11T11:11:23;98574.72;;;5.32;59.57
56142;BME280;42018;48.588;10.836;2023-02-11T11:14:28;98564.94;;;5.47;59.12
56142;BME280;42018;48.588;10.836;2023-02-11T11:17:17;98565.72;;;5.62;58.72
56142;BME280;42018;48.588;10.836;2023-02-11T11:20:32;98566.00;;;5.31;59.80
56142;BME280;42018;48.588;10.836;2023-02-11T11:23:58;98566.13;;;4.72;60.12
56142;BME280;42018;48.588;10.836;2023-02-11T11:26:56;98551.41;;;5.28;60.22
56142;BME280;42018;48.588;10.836;2023-02-11T11:29:45;98554.34;;;4.68;60.39
56142;BME280;42018;48.588;10.836;2023-02-11T11:32:32;98549.25;;;4.96;59.98
56142;BME280;42018;48.588;10.836;2023-02-11T11:35:26;98550.41;;;5.29;59.43
56142;BME280;42018;48.588;10.836;2023-02-11T11:38:13;98545.22;;;5.58;59.15
56142;BME280;42018;48.588;10.836;2023-02-11T11:44:31;98537.69;;;5.76;58.80
56142;BME280;42018;48.588;10.836;2023-02-11T11:47:23;98534.78;;;5.43;60.63
56142;BME280;42018;48.588;10.836;2023-02-11T11:50:13;98540.97;;;5.78;59.17
56142;BME280;42018;48.588;10.836;2023-02-11T11:59:09;98531.06;;;6.02;58.49
56142;BME280;42018;48.588;10.836;2023-02-11T12:02:29;98529.00;;;5.75;59.34
56142;BME280;42018;48.588;10.836;2023-02-11T12:23:31;98513.13;;;6.53;58.07
56142;BME280;42018;48.588;10.836;2023-02-11T12:26:35;98522.53;;;6.76;56.95
56142;BME280;42018;48.588;10.836;2023-02-11T12:29:58;98515.47;;;6.35;55.94
56142;BME280;42018;48.588;10.836;2023-02-11T12:33:01;98511.72;;;6.57;57.31
56142;BME280;42018;48.588;10.836;2023-02-11T12:35:58;98506.84;;;6.13;57.78
56142;BME280;42018;48.588;10.836;2023-02-11T12:51:24;98498.16;;;7.08;56.60
56142;BME280;42018;48.588;10.836;2023-02-11T13:05:44;98489.69;;;7.66;54.23
56142;BME280;42018;48.588;10.836;2023-02-11T13:08:43;98495.75;;;7.33;55.48
56142;BME280;42018;48.588;10.836;2023-02-11T13:11:39;98489.06;;;7.84;53.58
56142;BME280;42018;48.588;10.836;2023-02-11T13:14:29;98488.63;;;8.13;53.53
56142;BME280;42018;48.588;10.836;2023-02-11T13:17:19;98481.78;;;7.73;54.17
56142;BME280;42018;48.588;10.836;2023-02-11T13:20:20;98478.06;;;8.13;53.43
56142;BME280;42018;48.588;10.836;2023-02-11T13:26:24;98487.03;;;7.86;53.96
56142;BME280;42018;48.588;10.836;2023-02-11T13:36:10;98476.91;;;7.63;55.28
56142;BME280;42018;48.588;10.836;2023-02-11T13:39:02;98461.88;;;7.50;54.87
56142;BME280;42018;48.588;10.836;2023-02-11T13:41:48;98467.16;;;7.70;54.58
56142;BME280;42018;48.588;10.836;2023-02-11T13:44:35;98461.25;;;7.88;54.29
56142;BME280;42018;48.588;10.836;2023-02-11T13:47:26;98460.59;;;8.12;53.45
56142;BME280;42018;48.588;10.836;2023-02-11T13:50:20;98470.31;;;8.25;54.11
56142;BME280;42018;48.588;10.836;2023-02-11T13:53:07;98470.69;;;8.35;53.94
56142;BME280;42018;48.588;10.836;2023-02-11T13:56:05;98464.63;;;8.22;54.05
56142;BME280;42018;48.588;10.836;2023-02-11T13:58:52;98459.41;;;8.08;54.14
56142;BME280;42018;48.588;10.836;2023-02-11T14:02:04;98450.75;;;7.48;54.81
56142;BME280;42018;48.588;10.836;2023-02-11T14:05:19;98450.75;;;7.55;55.65
56142;BME280;42018;48.588;10.836;2023-02-11T14:08:24;98465.31;;;7.57;55.99
56142;BME280;42018;48.588;10.836;2023-02-11T14:14:32;98459.41;;;7.22;56.19
56142;BME280;42018;48.588;10.836;2023-02-11T14:17:26;98467.56;;;7.34;55.93
56142;BME280;42018;48.588;10.836;2023-02-11T14:20:33;98461.88;;;7.17;56.48
56142;BME280;42018;48.588;10.836;2023-02-11T14:23:23;98459.03;;;7.38;56.29
56142;BME280;42018;48.588;10.836;2023-02-11T14:29:14;98453.75;;;7.32;56.36
56142;BME280;42018;48.588;10.836;2023-02-11T14:32:32;98459.00;;;7.05;56.47
56142;BME280;42018;48.588;10.836;2023-02-11T14:35:49;98457.59;;;7.09;57.12
56142;BME280;42018;48.588;10.836;2023-02-11T14:38:59;98452.75;;;7.19;56.34
56142;BME280;42018;48.588;10.836;2023-02-11T14:41:48;98452.09;;;7.04;56.62
56142;BME280;42018;48.588;10.836;2023-02-11T14:44:35;98444.03;;;7.12;56.31
56142;BME280;42018;48.588;10.836;2023-02-11T14:47:33;98456.22;;;7.33;56.19
56142;BME280;42018;48.588;10.836;2023-02-11T14:50:39;98452.16;;;7.31;56.26
56142;BME280;42018;48.588;10.836;2023-02-11T14:53:27;98458.84;;;7.33;56.22
56142;BME280;42018;48.588;10.836;2023-02-11T14:56:23;98455.16;;;7.21;56.42
56142;BME280;42018;48.588;10.836;2023-02-11T14:59:20;98463.69;;;7.10;56.72
56142;BME280;42018;48.588;10.836;2023-02-11T15:02:20;98461.66;;;7.05;57.32
56142;BME280;42018;48.588;10.836;2023-02-11T15:05:25;98470.16;;;6.94;56.83
56142;BME280;42018;48.588;10.836;2023-02-11T15:08:13;98464.09;;;7.13;57.07
56142;BME280;42018;48.588;10.836;2023-02-11T15:11:01;98468.72;;;7.11;57.16
56142;BME280;42018;48.588;10.836;2023-02-11T15:13:48;98470.53;;;6.91;57.36
56142;BME280;42018;48.588;10.836;2023-02-11T15:16:40;98470.31;;;6.86;57.56
56142;BME280;42018;48.588;10.836;2023-02-11T15:19:35;98480.63;;;6.81;57.60
56142;BME280;42018;48.588;10.836;2023-02-11T15:22:25;98474.28;;;6.62;58.52
56142;BME280;42018;48.588;10.836;2023-02-11T15:25:17;98482.78;;;6.57;58.80
56142;BME280;42018;48.588;10.836;2023-02-11T15:28:18;98488.47;;;6.67;58.11
56142;BME280;42018;48.588;10.836;2023-02-11T15:31:14;98483.88;;;6.83;57.90
56142;BME280;42018;48.588;10.836;2023-02-11T15:34:06;98485.66;;;6.76;58.12
56142;BME280;42018;48.588;10.836;2023-02-11T15:36:52;98489.75;;;6.78;58.60
56142;BME280;42018;48.588;10.836;2023-02-11T15:39:40;98493.44;;;6.90;58.28
56142;BME280;42018;48.588;10.836;2023-02-11T15:42:28;98492.34;;;6.71;58.38
56142;BME280;42018;48.588;10.836;2023-02-11T15:48:09;98494.19;;;6.78;58.36
56142;BME280;42018;48.588;10.836;2023-02-11T15:51:01;98494.59;;;6.75;58.58
56142;BME280;42018;48.588;10.836;2023-02-11T15:53:56;98496.19;;;6.62;58.75
56142;BME280;42018;48.588;10.836;2023-02-11T15:56:45;98491.28;;;6.59;59.41
56142;BME280;42018;48.588;10.836;2023-02-11T15:59:35;98491.56;;;6.36;59.80
56142;BME280;42018;48.588;10.836;2023-02-11T16:02:31;98493.81;;;6.39;59.93
56142;BME280;42018;48.588;10.836;2023-02-11T16:05:39;98490.94;;;6.28;60.45
56142;BME280;42018;48.588;10.836;2023-02-11T16:08:27;98501.84;;;6.24;60.82
56142;BME280;42018;48.588;10.836;2023-02-11T16:11:32;98498.28;;;6.04;61.66
56142;BME280;42018;48.588;10.836;2023-02-11T16:17:27;98503.34;;;5.78;63.29
56142;BME280;42018;48.588;10.836;2023-02-11T16:20:18;98501.06;;;5.96;63.01
56142;BME280;42018;48.588;10.836;2023-02-11T16:23:04;98517.88;;;5.73;63.58
56142;BME280;42018;48.588;10.836;2023-02-11T16:25:57;98525.63;;;5.82;63.47
56142;BME280;42018;48.588;10.836;2023-02-11T16:28:44;98522.41;;;5.86;63.62
56142;BME280;42018;48.588;10.836;2023-02-11T16:31:34;98519.03;;;5.92;64.24
56142;BME280;42018;48.588;10.836;2023-02-11T16:34:24;98529.00;;;5.97;63.04
56142;BME280;42018;48.588;10.836;2023-02-11T16:37:10;98523.63;;;6.12;62.77
56142;BME280;42018;48.588;10.836;2023-02-11T16:39:55;98526.84;;;6.07;62.36
56142;BME280;42018;48.588;10.836;2023-02-11T16:42:42;98545.16;;;5.72;63.28
56142;BME280;42018;48.588;10.836;2023-02-11T16:45:27;98538.91;;;5.73;63.60
56142;BME280;42018;48.588;10.836;2023-02-11T16:48:16;98547.03;;;5.79;63.18
56142;BME280;42018;48.588;10.836;2023-02-11T16:51:02;98555.63;;;5.87;62.98
56142;BME280;42018;48.588;10.836;2023-02-11T16:53:47;98555.94;;;5.99;62.71
56142;BME280;42018;48.588;10.836;2023-02-11T16:56:33;98558.84;;;5.89;62.39
56142;BME280;42018;48.588;10.836;2023-02-11T16:59:18;98555.28;;;5.97;62.53
56142;BME280;42018;48.588;10.836;2023-02-11T17:02:04;98574.41;;;5.84;62.43
56142;BME280;42018;48.588;10.836;2023-02-11T17:04:54;98565.38;;;5.93;62.94